sensor_id;sensor_type;location;lat;lon;timestamp;temperature;humidity
11569;DHT22;5840;46.894;15.542;2022-11-21T00:00:30;3.90;99.90
11569;DHT22;5840;46.894;15.542;2022-11-21T00:03:00;3.90;99.90
11569;DHT22;5840;46.894;15.542;2022-11-21T00:05:27;3.80;99.90
11569;DHT22;5840;46.894;15.542;2022-11-21T00:07:55;3.80;99.90
11569;DHT22;5840;46.894;15.542;2022-11-21T00:10:22;3.80;99.90
11569;DHT22;5840;46.894;15.542;2022-11-21T00:12:52;3.70;99.90
11569;DHT22;5840;46.894;15.542;2022-11-21T00:15:19;3.70;99.90
11569;DHT22;5840;46.894;15.542;2022-11-21T00:17:46;3.70;99.90
11569;DHT22;5840;46.894;15.542;2022-11-21T00:20:15;3.70;99.90
11569;DHT22;5840;46.894;15.542;2022-11-21T00:22:42;3.70;99.90
11569;DHT22;5840;46.894;15.542;2022-11-21T00:25:09;3.60;99.90
11569;DHT22;5840;46.894;15.542;2022-11-21T00:27:36;3.60;99.90
11569;DHT22;5840;46.894;15.542;2022-11-21T00:30:04;3.50;99.90
11569;DHT22;5840;46.894;15.542;2022-11-21T00:32:32;3.50;99.90
11569;DHT22;5840;46.894;15.542;2022-11-21T00:34:58;3.50;99.90
11569;DHT22;5840;46.894;15.542;2022-11-21T00:37:27;3.50;99.90
11569;DHT22;5840;46.894;15.542;2022-11-21T00:39:54;3.50;99.90
11569;DHT22;5840;46.894;15.542;2022-11-21T00:42:21;3.50;99.90
11569;DHT22;5840;46.894;15.542;2022-11-21T00:44:48;3.50;99.90
11569;DHT22;5840;46.894;15.542;2022-11-21T00:47:14;3.50;99.90
11569;DHT22;5840;46.894;15.542;2022-11-21T00:49:41;3.50;99.90
11569;DHT22;5840;46.894;15.542;2022-11-21T00:52:08;3.50;99.90
11569;DHT22;5840;46.894;15.542;2022-11-21T00:54:37;3.50;99.90
11569;DHT22;5840;46.894;15.542;2022-11-21T00:57:03;3.50;99.90
11569;DHT22;5840;46.894;15.542;2022-11-21T00:59:30;3.50;99.90
11569;DHT22;5840;46.894;15.542;2022-11-21T01:01:58;3.50;99.90
11569;DHT22;5840;46.894;15.542;2022-11-21T01:04:25;3.40;99.90
11569;DHT22;5840;46.894;15.542;2022-11-21T01:06:51;3.40;99.90
11569;DHT22;5840;46.894;15.542;2022-11-21T01:09:18;3.40;99.90
11569;DHT22;5840;46.894;15.542;2022-11-21T01:11:47;3.40;99.90
11569;DHT22;5840;46.894;15.542;2022-11-21T01:14:14;3.40;99.90
11569;DHT22;5840;46.894;15.542;2022-11-21T01:16:41;3.40;99.90
11569;DHT22;5840;46.894;15.542;2022-11-21T01:19:08;3.40;99.90
11569;DHT22;5840;46.894;15.542;2022-11-21T01:21:35;3.40;99.90
11569;DHT22;5840;46.894;15.542;2022-11-21T01:24:02;3.40;99.90
11569;DHT22;5840;46.894;15.542;2022-11-21T01:26:30;3.40;99.90
11569;DHT22;5840;46.894;15.542;2022-11-21T01:28:59;3.30;99.90
11569;DHT22;5840;46.894;15.542;2022-11-21T01:31:28;3.30;99.90
11569;DHT22;5840;46.894;15.542;2022-11-21T01:33:56;3.20;99.90
11569;DHT22;5840;46.894;15.542;2022-11-21T01:36:26;3.10;99.90
11569;DHT22;5840;46.894;15.542;2022-11-21T01:38:56;3.00;99.90
11569;DHT22;5840;46.894;15.542;2022-11-21T01:41:25;3.00;99.90
11569;DHT22;5840;46.894;15.542;2022-11-21T01:43:54;3.00;99.90
11569;DHT22;5840;46.894;15.542;2022-11-21T01:46:23;3.00;99.90
11569;DHT22;5840;46.894;15.542;2022-11-21T01:48:53;2.90;99.90
11569;DHT22;5840;46.894;15.542;2022-11-21T01:51:25;2.90;99.90
11569;DHT22;5840;46.894;15.542;2022-11-21T01:53:56;2.90;99.90
11569;DHT22;5840;46.894;15.542;2022-11-21T01:56:24;2.80;99.90
11569;DHT22;5840;46.894;15.542;2022-11-21T01:58:55;2.80;99.90
11569;DHT22;5840;46.894;15.542;2022-11-21T02:01:27;2.80;99.90
11569;DHT22;5840;46.894;15.542;2022-11-21T02:03:56;2.80;99.90
11569;DHT22;5840;46.894;15.542;2022-11-21T02:06:24;2.80;99.90
11569;DHT22;5840;46.894;15.542;2022-11-21T02:08:51;2.80;99.90
11569;DHT22;5840;46.894;15.542;2022-11-21T02:11:25;2.70;99.90
11569;DHT22;5840;46.894;15.542;2022-11-21T02:13:55;2.70;99.90
11569;DHT22;5840;46.894;15.542;2022-11-21T02:16:22;2.70;99.90
11569;DHT22;5840;46.894;15.542;2022-11-21T02:18:51;2.70;99.90
11569;DHT22;5840;46.894;15.542;2022-11-21T02:21:24;2.70;99.90
11569;DHT22;5840;46.894;15.542;2022-11-21T02:23:57;2.60;99.90
11569;DHT22;5840;46.894;15.542;2022-11-21T02:26:27;2.60;99.90
11569;DHT22;5840;46.894;15.542;2022-11-21T02:28:56;2.60;99.90
11569;DHT22;5840;46.894;15.542;2022-11-21T02:31:23;2.60;99.90
11569;DHT22;5840;46.894;15.542;2022-11-21T02:33:50;2.60;99.90
11569;DHT22;5840;46.894;15.542;2022-11-21T02:36:35;2.60;99.90
11569;DHT22;5840;46.894;15.542;2022-11-21T02:39:05;2.60;99.90
11569;DHT22;5840;46.894;15.542;2022-11-21T02:41:37;2.60;99.90
11569;DHT22;5840;46.894;15.542;2022-11-21T02:44:14;2.60;99.90
11569;DHT22;5840;46.894;15.542;2022-11-21T02:46:46;2.60;99.90
11569;DHT22;5840;46.894;15.542;2022-11-21T02:49:17;2.60;99.90
11569;DHT22;5840;46.894;15.542;2022-11-21T02:51:47;2.60;99.90
11569;DHT22;5840;46.894;15.542;2022-11-21T02:54:14;2.60;99.90
11569;DHT22;5840;46.894;15.542;2022-11-21T02:56:42;2.60;99.90
11569;DHT22;5840;46.894;15.542;2022-11-21T02:59:09;2.60;99.90
11569;DHT22;5840;46.894;15.542;2022-11-21T03:01:36;2.60;99.90
11569;DHT22;5840;46.894;15.542;2022-11-21T03:04:03;2.60;99.90
11569;DHT22;5840;46.894;15.542;2022-11-21T03:06:30;2.60;99.90
11569;DHT22;5840;46.894;15.542;2022-11-21T03:08:57;2.60;99.90
11569;DHT22;5840;46.894;15.542;2022-11-21T03:11:23;2.60;99.90
11569;DHT22;5840;46.894;15.542;2022-11-21T03:13:52;2.60;99.90
11569;DHT22;5840;46.894;15.542;2022-11-21T03:16:19;2.60;99.90
11569;DHT22;5840;46.894;15.542;2022-11-21T03:18:45;2.60;99.90
11569;DHT22;5840;46.894;15.542;2022-11-21T03:21:12;2.60;99.90
11569;DHT22;5840;46.894;15.542;2022-11-21T03:23:39;2.60;99.90
11569;DHT22;5840;46.894;15.542;2022-11-21T03:26:06;2.60;99.90
11569;DHT22;5840;46.894;15.542;2022-11-21T03:28:33;2.50;99.90
11569;DHT22;5840;46.894;15.542;2022-11-21T03:31:01;2.50;99.90
11569;DHT22;5840;46.894;15.542;2022-11-21T03:33:28;2.50;99.90
11569;DHT22;5840;46.894;15.542;2022-11-21T03:35:55;2.50;99.90
11569;DHT22;5840;46.894;15.542;2022-11-21T03:38:22;2.50;99.90
11569;DHT22;5840;46.894;15.542;2022-11-21T03:40:49;2.40;99.90
11569;DHT22;5840;46.894;15.542;2022-11-21T03:43:16;2.40;99.90
11569;DHT22;5840;46.894;15.542;2022-11-21T03:45:45;2.40;99.90
11569;DHT22;5840;46.894;15.542;2022-11-21T03:48:13;2.40;99.90
11569;DHT22;5840;46.894;15.542;2022-11-21T03:50:41;2.40;99.90
11569;DHT22;5840;46.894;15.542;2022-11-21T03:53:08;2.40;99.90
11569;DHT22;5840;46.894;15.542;2022-11-21T03:55:35;2.40;99.90
11569;DHT22;5840;46.894;15.542;2022-11-21T03:58:02;2.50;99.90
11569;DHT22;5840;46.894;15.542;2022-11-21T04:00:29;2.50;99.90
11569;DHT22;5840;46.894;15.542;2022-11-21T04:02:56;2.50;99.90
11569;DHT22;5840;46.894;15.542;2022-11-21T04:05:24;2.50;99.90
11569;DHT22;5840;46.894;15.542;2022-11-21T04:07:51;2.50;99.90
11569;DHT22;5840;46.894;15.542;2022-11-21T04:10:18;2.50;99.90
11569;DHT22;5840;46.894;15.542;2022-11-21T04:12:46;2.50;99.90
11569;DHT22;5840;46.894;15.542;2022-11-21T04:15:13;2.50;99.90
11569;DHT22;5840;46.894;15.542;2022-11-21T04:17:40;2.50;99.90
11569;DHT22;5840;46.894;15.542;2022-11-21T04:20:08;2.50;99.90
11569;DHT22;5840;46.894;15.542;2022-11-21T04:22:36;2.50;99.90
11569;DHT22;5840;46.894;15.542;2022-11-21T04:25:04;2.50;99.90
11569;DHT22;5840;46.894;15.542;2022-11-21T04:27:31;2.50;99.90
11569;DHT22;5840;46.894;15.542;2022-11-21T04:29:58;2.50;99.90
11569;DHT22;5840;46.894;15.542;2022-11-21T04:32:25;2.60;99.90
11569;DHT22;5840;46.894;15.542;2022-11-21T04:34:52;2.60;99.90
11569;DHT22;5840;46.894;15.542;2022-11-21T04:37:18;2.60;99.90
11569;DHT22;5840;46.894;15.542;2022-11-21T04:39:47;2.60;99.90
11569;DHT22;5840;46.894;15.542;2022-11-21T04:42:14;2.60;99.90
11569;DHT22;5840;46.894;15.542;2022-11-21T04:44:40;2.60;99.90
11569;DHT22;5840;46.894;15.542;2022-11-21T04:47:07;2.60;99.90
11569;DHT22;5840;46.894;15.542;2022-11-21T04:49:34;2.60;99.90
11569;DHT22;5840;46.894;15.542;2022-11-21T04:52:01;2.60;99.90
11569;DHT22;5840;46.894;15.542;2022-11-21T04:54:28;2.60;99.90
11569;DHT22;5840;46.894;15.542;2022-11-21T04:56:56;2.60;99.90
11569;DHT22;5840;46.894;15.542;2022-11-21T04:59:23;2.60;99.90
11569;DHT22;5840;46.894;15.542;2022-11-21T05:01:50;2.60;99.90
11569;DHT22;5840;46.894;15.542;2022-11-21T05:04:17;2.60;99.90
11569;DHT22;5840;46.894;15.542;2022-11-21T05:06:44;2.60;99.90
11569;DHT22;5840;46.894;15.542;2022-11-21T05:09:11;2.60;99.90
11569;DHT22;5840;46.894;15.542;2022-11-21T05:11:38;2.60;99.90
11569;DHT22;5840;46.894;15.542;2022-11-21T05:14:24;2.60;99.90
11569;DHT22;5840;46.894;15.542;2022-11-21T05:16:51;2.60;99.90
11569;DHT22;5840;46.894;15.542;2022-11-21T05:19:18;2.50;99.90
11569;DHT22;5840;46.894;15.542;2022-11-21T05:21:45;2.40;99.90
11569;DHT22;5840;46.894;15.542;2022-11-21T05:24:12;2.40;99.90
11569;DHT22;5840;46.894;15.542;2022-11-21T05:26:39;2.30;99.90
11569;DHT22;5840;46.894;15.542;2022-11-21T05:29:06;2.30;99.90
11569;DHT22;5840;46.894;15.542;2022-11-21T05:31:34;2.30;99.90
11569;DHT22;5840;46.894;15.542;2022-11-21T05:34:01;2.30;99.90
11569;DHT22;5840;46.894;15.542;2022-11-21T05:36:28;2.30;99.90
11569;DHT22;5840;46.894;15.542;2022-11-21T05:38:55;2.40;99.90
11569;DHT22;5840;46.894;15.542;2022-11-21T05:41:22;2.40;99.90
11569;DHT22;5840;46.894;15.542;2022-11-21T05:43:49;2.40;99.90
11569;DHT22;5840;46.894;15.542;2022-11-21T05:46:16;2.40;99.90
11569;DHT22;5840;46.894;15.542;2022-11-21T05:48:45;2.40;99.90
11569;DHT22;5840;46.894;15.542;2022-11-21T05:51:13;2.40;99.90
11569;DHT22;5840;46.894;15.542;2022-11-21T05:53:39;2.40;99.90
11569;DHT22;5840;46.894;15.542;2022-11-21T05:56:08;2.30;99.90
11569;DHT22;5840;46.894;15.542;2022-11-21T05:58:35;2.30;99.90
11569;DHT22;5840;46.894;15.542;2022-11-21T06:01:03;2.30;99.90
11569;DHT22;5840;46.894;15.542;2022-11-21T06:03:32;2.30;99.90
11569;DHT22;5840;46.894;15.542;2022-11-21T06:06:04;2.30;99.90
11569;DHT22;5840;46.894;15.542;2022-11-21T06:08:33;2.30;99.90
11569;DHT22;5840;46.894;15.542;2022-11-21T06:11:00;2.40;99.90
11569;DHT22;5840;46.894;15.542;2022-11-21T06:13:28;2.30;99.90
11569;DHT22;5840;46.894;15.542;2022-11-21T06:15:59;2.40;99.90
11569;DHT22;5840;46.894;15.542;2022-11-21T06:18:26;2.40;99.90
11569;DHT22;5840;46.894;15.542;2022-11-21T06:20:53;2.40;99.90
11569;DHT22;5840;46.894;15.542;2022-11-21T06:23:21;2.40;99.90
11569;DHT22;5840;46.894;15.542;2022-11-21T06:25:55;2.50;99.90
11569;DHT22;5840;46.894;15.542;2022-11-21T06:28:22;2.50;99.90
11569;DHT22;5840;46.894;15.542;2022-11-21T06:30:49;2.50;99.90
11569;DHT22;5840;46.894;15.542;2022-11-21T06:33:17;2.50;99.90
11569;DHT22;5840;46.894;15.542;2022-11-21T06:35:45;2.50;99.90
11569;DHT22;5840;46.894;15.542;2022-11-21T06:38:11;2.50;99.90
11569;DHT22;5840;46.894;15.542;2022-11-21T06:40:40;2.50;99.90
11569;DHT22;5840;46.894;15.542;2022-11-21T06:43:07;2.40;99.90
11569;DHT22;5840;46.894;15.542;2022-11-21T06:45:34;2.50;99.90
11569;DHT22;5840;46.894;15.542;2022-11-21T06:48:01;2.50;99.90
11569;DHT22;5840;46.894;15.542;2022-11-21T06:50:28;2.50;99.90
11569;DHT22;5840;46.894;15.542;2022-11-21T06:52:57;2.50;99.90
11569;DHT22;5840;46.894;15.542;2022-11-21T06:55:24;2.60;99.90
11569;DHT22;5840;46.894;15.542;2022-11-21T06:57:56;2.60;99.90
11569;DHT22;5840;46.894;15.542;2022-11-21T07:00:23;2.60;99.90
11569;DHT22;5840;46.894;15.542;2022-11-21T07:02:50;2.60;99.90
11569;DHT22;5840;46.894;15.542;2022-11-21T07:05:17;2.60;99.90
11569;DHT22;5840;46.894;15.542;2022-11-21T07:07:44;2.70;99.90
11569;DHT22;5840;46.894;15.542;2022-11-21T07:10:11;2.70;99.90
11569;DHT22;5840;46.894;15.542;2022-11-21T07:12:38;2.70;99.90
11569;DHT22;5840;46.894;15.542;2022-11-21T07:15:23;2.70;99.90
11569;DHT22;5840;46.894;15.542;2022-11-21T07:17:50;2.80;99.90
11569;DHT22;5840;46.894;15.542;2022-11-21T07:20:17;2.80;99.90
11569;DHT22;5840;46.894;15.542;2022-11-21T07:22:44;2.80;99.90
11569;DHT22;5840;46.894;15.542;2022-11-21T07:25:11;2.90;99.90
11569;DHT22;5840;46.894;15.542;2022-11-21T07:27:38;2.90;99.90
11569;DHT22;5840;46.894;15.542;2022-11-21T07:30:06;2.90;99.90
11569;DHT22;5840;46.894;15.542;2022-11-21T07:32:35;2.90;99.90
11569;DHT22;5840;46.894;15.542;2022-11-21T07:35:01;3.00;99.90
11569;DHT22;5840;46.894;15.542;2022-11-21T07:37:28;3.00;99.90
11569;DHT22;5840;46.894;15.542;2022-11-21T07:39:55;3.00;99.90
11569;DHT22;5840;46.894;15.542;2022-11-21T07:42:22;3.00;99.90
11569;DHT22;5840;46.894;15.542;2022-11-21T07:44:49;3.00;99.90
11569;DHT22;5840;46.894;15.542;2022-11-21T07:47:16;3.00;99.90
11569;DHT22;5840;46.894;15.542;2022-11-21T07:49:44;3.10;99.90
11569;DHT22;5840;46.894;15.542;2022-11-21T07:52:11;3.10;99.90
11569;DHT22;5840;46.894;15.542;2022-11-21T07:54:38;3.10;99.90
11569;DHT22;5840;46.894;15.542;2022-11-21T07:57:05;3.10;99.90
11569;DHT22;5840;46.894;15.542;2022-11-21T07:59:32;3.20;99.90
11569;DHT22;5840;46.894;15.542;2022-11-21T08:01:59;3.20;99.90
11569;DHT22;5840;46.894;15.542;2022-11-21T08:04:27;3.20;99.90
11569;DHT22;5840;46.894;15.542;2022-11-21T08:06:55;3.20;99.90
11569;DHT22;5840;46.894;15.542;2022-11-21T08:09:26;3.20;99.90
11569;DHT22;5840;46.894;15.542;2022-11-21T08:11:53;3.30;99.90
11569;DHT22;5840;46.894;15.542;2022-11-21T08:14:20;3.30;99.90
11569;DHT22;5840;46.894;15.542;2022-11-21T08:16:51;3.30;99.90
11569;DHT22;5840;46.894;15.542;2022-11-21T08:19:19;3.40;99.90
11569;DHT22;5840;46.894;15.542;2022-11-21T08:21:46;3.40;99.90
11569;DHT22;5840;46.894;15.542;2022-11-21T08:24:14;3.50;99.90
11569;DHT22;5840;46.894;15.542;2022-11-21T08:26:42;3.50;99.90
11569;DHT22;5840;46.894;15.542;2022-11-21T08:29:10;3.60;99.90
11569;DHT22;5840;46.894;15.542;2022-11-21T08:31:38;3.70;99.90
11569;DHT22;5840;46.894;15.542;2022-11-21T08:34:05;3.70;99.90
11569;DHT22;5840;46.894;15.542;2022-11-21T08:36:32;3.70;99.90
11569;DHT22;5840;46.894;15.542;2022-11-21T08:38:59;3.70;99.90
11569;DHT22;5840;46.894;15.542;2022-11-21T08:41:27;3.70;99.90
11569;DHT22;5840;46.894;15.542;2022-11-21T08:44:12;3.70;99.90
11569;DHT22;5840;46.894;15.542;2022-11-21T08:46:38;3.70;99.90
11569;DHT22;5840;46.894;15.542;2022-11-21T08:49:06;3.70;99.90
11569;DHT22;5840;46.894;15.542;2022-11-21T08:51:34;3.70;99.90
11569;DHT22;5840;46.894;15.542;2022-11-21T08:54:01;3.80;99.90
11569;DHT22;5840;46.894;15.542;2022-11-21T08:56:29;3.70;99.90
11569;DHT22;5840;46.894;15.542;2022-11-21T08:58:56;3.70;99.90
11569;DHT22;5840;46.894;15.542;2022-11-21T09:01:23;3.70;99.90
11569;DHT22;5840;46.894;15.542;2022-11-21T09:03:50;3.80;99.90
11569;DHT22;5840;46.894;15.542;2022-11-21T09:06:17;3.80;99.90
11569;DHT22;5840;46.894;15.542;2022-11-21T09:08:44;3.90;99.90
11569;DHT22;5840;46.894;15.542;2022-11-21T09:11:11;4.00;99.90
11569;DHT22;5840;46.894;15.542;2022-11-21T09:13:39;4.00;99.90
11569;DHT22;5840;46.894;15.542;2022-11-21T09:16:06;4.10;99.90
11569;DHT22;5840;46.894;15.542;2022-11-21T09:18:51;4.10;99.90
11569;DHT22;5840;46.894;15.542;2022-11-21T09:21:19;4.10;99.90
11569;DHT22;5840;46.894;15.542;2022-11-21T09:23:46;4.10;99.90
11569;DHT22;5840;46.894;15.542;2022-11-21T09:26:13;4.10;99.90
11569;DHT22;5840;46.894;15.542;2022-11-21T09:28:41;4.10;99.90
11569;DHT22;5840;46.894;15.542;2022-11-21T09:31:08;4.10;99.90
11569;DHT22;5840;46.894;15.542;2022-11-21T09:33:40;4.20;99.90
11569;DHT22;5840;46.894;15.542;2022-11-21T09:36:08;4.20;99.90
11569;DHT22;5840;46.894;15.542;2022-11-21T09:38:35;4.20;99.90
11569;DHT22;5840;46.894;15.542;2022-11-21T09:41:15;4.30;99.90
11569;DHT22;5840;46.894;15.542;2022-11-21T09:44:11;4.40;99.90
11569;DHT22;5840;46.894;15.542;2022-11-21T09:46:44;4.60;99.90
11569;DHT22;5840;46.894;15.542;2022-11-21T09:49:13;4.50;99.90
11569;DHT22;5840;46.894;15.542;2022-11-21T09:51:43;4.50;99.90
11569;DHT22;5840;46.894;15.542;2022-11-21T09:54:17;4.60;99.90
11569;DHT22;5840;46.894;15.542;2022-11-21T09:56:46;4.70;99.90
11569;DHT22;5840;46.894;15.542;2022-11-21T09:59:27;4.80;99.90
11569;DHT22;5840;46.894;15.542;2022-11-21T10:01:55;4.90;99.90
11569;DHT22;5840;46.894;15.542;2022-11-21T10:04:22;5.10;99.90
11569;DHT22;5840;46.894;15.542;2022-11-21T10:06:58;5.20;99.90
11569;DHT22;5840;46.894;15.542;2022-11-21T10:09:37;5.40;99.90
11569;DHT22;5840;46.894;15.542;2022-11-21T10:12:15;5.50;99.90
11569;DHT22;5840;46.894;15.542;2022-11-21T10:15:25;5.50;99.90
11569;DHT22;5840;46.894;15.542;2022-11-21T10:18:30;5.70;99.90
11569;DHT22;5840;46.894;15.542;2022-11-21T10:21:08;5.90;99.90
11569;DHT22;5840;46.894;15.542;2022-11-21T10:23:53;6.10;99.90
11569;DHT22;5840;46.894;15.542;2022-11-21T10:26:35;6.10;99.90
11569;DHT22;5840;46.894;15.542;2022-11-21T10:29:11;6.10;99.90
11569;DHT22;5840;46.894;15.542;2022-11-21T10:31:43;6.50;99.90
11569;DHT22;5840;46.894;15.542;2022-11-21T10:34:14;7.00;99.90
11569;DHT22;5840;46.894;15.542;2022-11-21T10:36:44;7.20;99.90
11569;DHT22;5840;46.894;15.542;2022-11-21T10:39:21;7.20;99.90
11569;DHT22;5840;46.894;15.542;2022-11-21T10:41:57;7.20;99.90
11569;DHT22;5840;46.894;15.542;2022-11-21T10:44:26;7.00;99.90
11569;DHT22;5840;46.894;15.542;2022-11-21T10:47:15;6.80;99.90
11569;DHT22;5840;46.894;15.542;2022-11-21T10:49:56;6.60;99.90
11569;DHT22;5840;46.894;15.542;2022-11-21T10:52:26;6.50;99.90
11569;DHT22;5840;46.894;15.542;2022-11-21T10:55:07;6.50;99.90
11569;DHT22;5840;46.894;15.542;2022-11-21T10:57:44;6.60;99.90
11569;DHT22;5840;46.894;15.542;2022-11-21T11:00:20;6.50;99.90
11569;DHT22;5840;46.894;15.542;2022-11-21T11:03:08;6.50;99.90
11569;DHT22;5840;46.894;15.542;2022-11-21T11:05:53;6.40;99.90
11569;DHT22;5840;46.894;15.542;2022-11-21T11:08:21;6.30;99.90
11569;DHT22;5840;46.894;15.542;2022-11-21T11:11:01;6.30;99.90
11569;DHT22;5840;46.894;15.542;2022-11-21T11:13:28;6.20;99.90
11569;DHT22;5840;46.894;15.542;2022-11-21T11:16:09;6.20;99.90
11569;DHT22;5840;46.894;15.542;2022-11-21T11:18:46;6.20;99.90
11569;DHT22;5840;46.894;15.542;2022-11-21T11:21:17;6.40;99.90
11569;DHT22;5840;46.894;15.542;2022-11-21T11:23:45;6.60;99.90
11569;DHT22;5840;46.894;15.542;2022-11-21T11:26:33;6.90;99.90
11569;DHT22;5840;46.894;15.542;2022-11-21T11:29:08;7.30;99.90
11569;DHT22;5840;46.894;15.542;2022-11-21T11:31:40;7.70;99.90
11569;DHT22;5840;46.894;15.542;2022-11-21T11:34:11;8.10;99.90
11569;DHT22;5840;46.894;15.542;2022-11-21T11:36:48;8.10;99.90
11569;DHT22;5840;46.894;15.542;2022-11-21T11:39:26;8.00;99.90
11569;DHT22;5840;46.894;15.542;2022-11-21T11:45:29;8.20;99.90
11569;DHT22;5840;46.894;15.542;2022-11-21T11:48:17;8.60;99.90
11569;DHT22;5840;46.894;15.542;2022-11-21T11:50:48;8.90;99.90
11569;DHT22;5840;46.894;15.542;2022-11-21T11:53:18;9.10;99.90
11569;DHT22;5840;46.894;15.542;2022-11-21T11:55:49;9.20;99.90
11569;DHT22;5840;46.894;15.542;2022-11-21T11:58:22;9.10;99.90
11569;DHT22;5840;46.894;15.542;2022-11-21T12:00:58;9.00;99.90
11569;DHT22;5840;46.894;15.542;2022-11-21T12:03:33;9.00;99.90
11569;DHT22;5840;46.894;15.542;2022-11-21T12:06:08;9.20;99.90
11569;DHT22;5840;46.894;15.542;2022-11-21T12:08:40;9.30;99.90
11569;DHT22;5840;46.894;15.542;2022-11-21T12:11:32;9.40;99.90
11569;DHT22;5840;46.894;15.542;2022-11-21T12:14:31;9.40;99.90
11569;DHT22;5840;46.894;15.542;2022-11-21T12:17:19;9.50;99.90
11569;DHT22;5840;46.894;15.542;2022-11-21T12:19:48;9.50;99.90
11569;DHT22;5840;46.894;15.542;2022-11-21T12:22:18;9.50;99.90
11569;DHT22;5840;46.894;15.542;2022-11-21T12:24:44;9.60;99.90
11569;DHT22;5840;46.894;15.542;2022-11-21T12:27:20;9.50;99.90
11569;DHT22;5840;46.894;15.542;2022-11-21T12:30:02;9.60;99.90
11569;DHT22;5840;46.894;15.542;2022-11-21T12:32:46;9.60;99.90
11569;DHT22;5840;46.894;15.542;2022-11-21T12:35:38;9.50;99.90
11569;DHT22;5840;46.894;15.542;2022-11-21T12:38:18;9.40;99.90
11569;DHT22;5840;46.894;15.542;2022-11-21T12:40:53;9.30;99.90
11569;DHT22;5840;46.894;15.542;2022-11-21T12:43:28;9.40;99.90
11569;DHT22;5840;46.894;15.542;2022-11-21T12:46:06;9.50;99.90
11569;DHT22;5840;46.894;15.542;2022-11-21T12:48:43;9.40;99.90
11569;DHT22;5840;46.894;15.542;2022-11-21T12:51:38;9.40;99.90
11569;DHT22;5840;46.894;15.542;2022-11-21T13:00:51;9.40;99.90
11569;DHT22;5840;46.894;15.542;2022-11-21T13:03:38;9.50;99.90
11569;DHT22;5840;46.894;15.542;2022-11-21T13:06:13;9.50;99.90
11569;DHT22;5840;46.894;15.542;2022-11-21T13:08:44;9.60;99.90
11569;DHT22;5840;46.894;15.542;2022-11-21T13:11:24;9.60;99.90
11569;DHT22;5840;46.894;15.542;2022-11-21T13:14:17;9.70;99.90
11569;DHT22;5840;46.894;15.542;2022-11-21T13:16:55;9.60;99.90
11569;DHT22;5840;46.894;15.542;2022-11-21T13:19:33;9.70;99.90
11569;DHT22;5840;46.894;15.542;2022-11-21T13:22:02;9.70;99.90
11569;DHT22;5840;46.894;15.542;2022-11-21T13:24:55;9.70;99.90
11569;DHT22;5840;46.894;15.542;2022-11-21T13:27:30;9.60;99.90
11569;DHT22;5840;46.894;15.542;2022-11-21T13:30:23;9.50;99.90
11569;DHT22;5840;46.894;15.542;2022-11-21T13:32:51;9.40;99.90
11569;DHT22;5840;46.894;15.542;2022-11-21T13:38:31;9.40;99.90
11569;DHT22;5840;46.894;15.542;2022-11-21T13:40:58;9.30;99.90
11569;DHT22;5840;46.894;15.542;2022-11-21T13:43:44;9.30;99.90
11569;DHT22;5840;46.894;15.542;2022-11-21T13:49:20;9.40;99.90
11569;DHT22;5840;46.894;15.542;2022-11-21T13:51:52;9.50;99.90
11569;DHT22;5840;46.894;15.542;2022-11-21T13:57:31;9.60;99.90
11569;DHT22;5840;46.894;15.542;2022-11-21T14:00:19;9.70;99.90
11569;DHT22;5840;46.894;15.542;2022-11-21T14:09:17;9.80;99.90
11569;DHT22;5840;46.894;15.542;2022-11-21T14:11:47;9.80;99.90
11569;DHT22;5840;46.894;15.542;2022-11-21T14:14:23;9.70;99.90
11569;DHT22;5840;46.894;15.542;2022-11-21T14:17:02;9.60;99.90
11569;DHT22;5840;46.894;15.542;2022-11-21T14:19:33;9.50;99.90
11569;DHT22;5840;46.894;15.542;2022-11-21T14:22:00;9.50;99.90
11569;DHT22;5840;46.894;15.542;2022-11-21T14:24:27;9.50;99.90
11569;DHT22;5840;46.894;15.542;2022-11-21T14:26:55;9.40;99.90
11569;DHT22;5840;46.894;15.542;2022-11-21T14:29:26;9.30;99.90
11569;DHT22;5840;46.894;15.542;2022-11-21T14:31:54;9.20;99.90
11569;DHT22;5840;46.894;15.542;2022-11-21T14:34:25;9.10;99.90
11569;DHT22;5840;46.894;15.542;2022-11-21T14:36:53;9.10;99.90
11569;DHT22;5840;46.894;15.542;2022-11-21T14:39:24;9.20;99.90
11569;DHT22;5840;46.894;15.542;2022-11-21T14:41:53;9.20;99.90
11569;DHT22;5840;46.894;15.542;2022-11-21T14:44:21;9.10;99.90
11569;DHT22;5840;46.894;15.542;2022-11-21T14:46:49;9.00;99.90
11569;DHT22;5840;46.894;15.542;2022-11-21T14:49:22;9.00;99.90
11569;DHT22;5840;46.894;15.542;2022-11-21T14:51:52;8.90;99.90
11569;DHT22;5840;46.894;15.542;2022-11-21T14:54:25;8.90;99.90
11569;DHT22;5840;46.894;15.542;2022-11-21T14:56:56;8.90;99.90
11569;DHT22;5840;46.894;15.542;2022-11-21T14:59:25;8.90;99.90
11569;DHT22;5840;46.894;15.542;2022-11-21T15:01:56;8.80;99.90
11569;DHT22;5840;46.894;15.542;2022-11-21T15:04:28;8.80;99.90
11569;DHT22;5840;46.894;15.542;2022-11-21T15:06:55;8.70;99.90
11569;DHT22;5840;46.894;15.542;2022-11-21T15:09:22;8.50;99.90
11569;DHT22;5840;46.894;15.542;2022-11-21T15:11:51;8.30;99.90
11569;DHT22;5840;46.894;15.542;2022-11-21T15:14:23;8.10;99.90
11569;DHT22;5840;46.894;15.542;2022-11-21T15:16:53;7.90;99.90
11569;DHT22;5840;46.894;15.542;2022-11-21T15:19:22;7.80;99.90
11569;DHT22;5840;46.894;15.542;2022-11-21T15:21:53;7.60;99.90
11569;DHT22;5840;46.894;15.542;2022-11-21T15:24:29;7.40;99.90
11569;DHT22;5840;46.894;15.542;2022-11-21T15:26:57;7.20;99.90
11569;DHT22;5840;46.894;15.542;2022-11-21T15:29:24;7.10;99.90
11569;DHT22;5840;46.894;15.542;2022-11-21T15:32:07;7.10;99.90
11569;DHT22;5840;46.894;15.542;2022-11-21T15:34:35;7.00;99.90
11569;DHT22;5840;46.894;15.542;2022-11-21T15:37:04;7.00;99.90
11569;DHT22;5840;46.894;15.542;2022-11-21T15:39:33;6.90;99.90
11569;DHT22;5840;46.894;15.542;2022-11-21T15:42:32;6.80;99.90
11569;DHT22;5840;46.894;15.542;2022-11-21T15:45:17;6.80;99.90
11569;DHT22;5840;46.894;15.542;2022-11-21T15:47:45;6.70;99.90
11569;DHT22;5840;46.894;15.542;2022-11-21T15:50:13;6.70;99.90
11569;DHT22;5840;46.894;15.542;2022-11-21T15:52:44;6.70;99.90
11569;DHT22;5840;46.894;15.542;2022-11-21T15:55:17;6.70;99.90
11569;DHT22;5840;46.894;15.542;2022-11-21T15:57:44;6.60;99.90
11569;DHT22;5840;46.894;15.542;2022-11-21T16:00:12;6.60;99.90
11569;DHT22;5840;46.894;15.542;2022-11-21T16:02:39;6.60;99.90
11569;DHT22;5840;46.894;15.542;2022-11-21T16:05:10;6.60;99.90
11569;DHT22;5840;46.894;15.542;2022-11-21T16:07:38;6.60;99.90
11569;DHT22;5840;46.894;15.542;2022-11-21T16:10:08;6.60;99.90
11569;DHT22;5840;46.894;15.542;2022-11-21T16:12:35;6.60;99.90
11569;DHT22;5840;46.894;15.542;2022-11-21T16:15:02;6.60;99.90
11569;DHT22;5840;46.894;15.542;2022-11-21T16:17:29;6.60;99.90
11569;DHT22;5840;46.894;15.542;2022-11-21T16:19:56;6.60;99.90
11569;DHT22;5840;46.894;15.542;2022-11-21T16:22:23;6.50;99.90
11569;DHT22;5840;46.894;15.542;2022-11-21T16:24:51;6.40;99.90
11569;DHT22;5840;46.894;15.542;2022-11-21T16:27:19;6.30;99.90
11569;DHT22;5840;46.894;15.542;2022-11-21T16:29:46;6.20;99.90
11569;DHT22;5840;46.894;15.542;2022-11-21T16:32:13;6.10;99.90